createdAt,value
2023-02-19T00:02:35.838Z,84.27
2023-02-19T00:06:44.627Z,84.40
2023-02-19T00:10:51.976Z,84.27
2023-02-19T00:15:00.416Z,84.22
2023-02-19T00:19:13.614Z,84.28
2023-02-19T00:23:21.215Z,84.32
2023-02-19T00:27:29.225Z,84.36
2023-02-19T00:31:38.180Z,84.60
2023-02-19T00:35:46.207Z,84.61
2023-02-19T00:39:54.010Z,84.62
2023-02-19T00:44:05.703Z,84.58
2023-02-19T00:48:17.581Z,84.79
2023-02-19T00:52:35.159Z,84.77
2023-02-19T00:56:45.199Z,84.77
2023-02-19T01:00:52.954Z,84.83
2023-02-19T01:05:01.346Z,84.90
2023-02-19T01:09:09.974Z,85.21
2023-02-19T01:13:17.743Z,85.51
2023-02-19T01:17:26.658Z,85.61
2023-02-19T01:21:35.131Z,85.58
2023-02-19T01:25:43.380Z,85.64
2023-02-19T01:29:51.083Z,85.76
2023-02-19T01:34:01.829Z,85.78
2023-02-19T01:38:10.323Z,85.93
2023-02-19T01:42:19.127Z,85.82
2023-02-19T01:46:28.510Z,85.69
2023-02-19T01:50:40.749Z,85.93
2023-02-19T01:54:49.141Z,85.90
2023-02-19T01:58:58.462Z,85.78
2023-02-19T02:03:06.952Z,85.52
2023-02-19T02:07:29.430Z,85.63
2023-02-19T02:11:37.650Z,85.84
2023-02-19T02:15:50.767Z,85.81
2023-02-19T02:20:08.505Z,86.05
2023-02-19T02:24:34.621Z,85.76
2023-02-19T02:29:09.441Z,85.81
2023-02-19T02:33:26.403Z,85.92
2023-02-19T02:37:37.692Z,85.92
2023-02-19T02:41:48.172Z,85.71
2023-02-19T02:45:56.328Z,85.89
2023-02-19T02:50:07.147Z,85.78
2023-02-19T02:54:35.381Z,85.87
2023-02-19T02:58:42.740Z,85.83
2023-02-19T03:02:50.256Z,85.89
2023-02-19T03:06:58.858Z,86.04
2023-02-19T03:11:23.471Z,85.95
2023-02-19T03:15:55.120Z,85.91
2023-02-19T03:20:05.292Z,86.02
2023-02-19T03:24:32.501Z,86.07
2023-02-19T03:29:02.591Z,86.02
2023-02-19T03:33:13.322Z,86.15
2023-02-19T03:37:25.570Z,86.19
2023-02-19T03:41:38.616Z,85.96
2023-02-19T03:45:52.974Z,86.04
2023-02-19T03:50:05.130Z,86.22
2023-02-19T03:54:17.678Z,86.13
2023-02-19T03:58:28.705Z,86.42
2023-02-19T04:02:39.973Z,86.38
2023-02-19T04:06:54.664Z,86.45
2023-02-19T04:11:03.406Z,86.54
2023-02-19T04:15:14.017Z,86.65
2023-02-19T04:19:25.130Z,86.83
2023-02-19T04:23:39.483Z,86.79
2023-02-19T04:27:47.689Z,86.83
2023-02-19T04:31:55.521Z,86.72
2023-02-19T04:36:03.740Z,86.57
2023-02-19T04:40:13.282Z,86.71
2023-02-19T04:44:21.208Z,86.87
2023-02-19T04:48:29.555Z,86.74
2023-02-19T04:52:38.236Z,86.89
2023-02-19T04:56:46.164Z,86.93
2023-02-19T05:00:56.582Z,86.93
2023-02-19T05:05:06.636Z,86.89
2023-02-19T05:09:14.060Z,87.02
2023-02-19T05:13:21.858Z,86.94
2023-02-19T05:17:31.775Z,86.91
2023-02-19T05:21:39.656Z,86.94
2023-02-19T05:25:47.564Z,86.84
2023-02-19T05:29:55.508Z,86.84
2023-02-19T05:34:03.791Z,86.97
2023-02-19T05:38:13.009Z,86.82
2023-02-19T05:42:26.550Z,86.92
2023-02-19T05:46:34.289Z,86.83
2023-02-19T05:50:41.925Z,86.83
2023-02-19T05:54:49.820Z,86.72
2023-02-19T05:58:58.449Z,86.91
2023-02-19T06:03:06.391Z,86.77
2023-02-19T06:07:15.154Z,86.94
2023-02-19T06:11:23.562Z,86.98
2023-02-19T06:15:31.717Z,86.89
2023-02-19T06:19:40.781Z,87.03
2023-02-19T06:23:49.069Z,87.18
2023-02-19T06:27:56.830Z,87.13
2023-02-19T06:32:04.286Z,87.21
2023-02-19T06:36:15.001Z,87.54
2023-02-19T06:40:22.807Z,87.67
2023-02-19T06:44:38.999Z,88.07
2023-02-19T06:48:49.074Z,88.18
2023-02-19T06:52:57.091Z,88.33
2023-02-19T06:57:04.808Z,88.47
2023-02-19T07:01:14.726Z,88.74
2023-02-19T07:05:21.902Z,88.81
2023-02-19T07:09:30.423Z,88.90
2023-02-19T07:13:38.556Z,88.86
2023-02-19T07:17:47.871Z,89.11
2023-02-19T07:21:56.523Z,89.04
2023-02-19T07:26:04.341Z,88.97
2023-02-19T07:30:14.791Z,88.46
2023-02-19T07:34:22.551Z,88.52
2023-02-19T07:38:30.488Z,88.54
2023-02-19T07:42:38.319Z,88.32
2023-02-19T07:46:46.276Z,88.54
2023-02-19T07:50:59.168Z,88.62
2023-02-19T07:55:07.408Z,88.59
2023-02-19T07:59:16.308Z,88.34
2023-02-19T08:03:24.126Z,87.95
2023-02-19T08:07:36.334Z,88.31
2023-02-19T08:12:01.278Z,88.89
2023-02-19T08:16:26.634Z,88.84
2023-02-19T08:20:42.769Z,88.66
2023-02-19T08:24:51.686Z,87.75
2023-02-19T08:28:59.358Z,86.93
2023-02-19T08:33:08.652Z,86.24
2023-02-19T08:37:16.554Z,86.16
2023-02-19T08:41:24.006Z,86.47
2023-02-19T08:45:34.166Z,86.36
2023-02-19T08:49:43.134Z,86.81
2023-02-19T08:53:51.396Z,86.85
2023-02-19T08:57:59.394Z,86.79
2023-02-19T09:02:07.564Z,86.71
2023-02-19T09:06:19.039Z,86.72
2023-02-19T09:10:27.189Z,86.84
2023-02-19T09:14:37.493Z,86.95
2023-02-19T09:18:45.961Z,86.89
2023-02-19T09:22:53.801Z,87.11
2023-02-19T09:27:01.591Z,87.83
2023-02-19T09:31:11.166Z,87.54
2023-02-19T09:35:19.479Z,88.06
2023-02-19T09:39:26.814Z,87.79
2023-02-19T09:43:35.153Z,87.83
2023-02-19T09:47:43.362Z,87.55
2023-02-19T09:51:52.749Z,87.43
2023-02-19T09:56:00.249Z,86.92
2023-02-19T10:00:15.146Z,87.11
2023-02-19T10:04:22.998Z,86.97
2023-02-19T10:08:36.112Z,87.62
2023-02-19T10:12:47.790Z,87.75
2023-02-19T10:16:55.583Z,87.70
2023-02-19T10:21:03.420Z,87.38
2023-02-19T10:25:13.980Z,87.33
2023-02-19T10:29:22.171Z,85.53
2023-02-19T10:33:30.172Z,84.35
2023-02-19T10:37:38.469Z,84.72
2023-02-19T10:41:46.175Z,83.89
2023-02-19T10:45:54.135Z,83.98
2023-02-19T10:50:04.639Z,82.24
2023-02-19T10:54:19.297Z,81.83
2023-02-19T10:58:28.672Z,82.23
2023-02-19T11:02:37.232Z,81.75
2023-02-19T11:06:45.711Z,81.31
2023-02-19T11:10:53.322Z,80.89
2023-02-19T11:15:02.172Z,80.51
2023-02-19T11:19:18.862Z,80.48
2023-02-19T11:23:29.573Z,79.94
2023-02-19T11:27:37.511Z,79.57
2023-02-19T11:31:45.035Z,79.92
2023-02-19T11:35:54.070Z,80.20
2023-02-19T11:40:02.335Z,79.56
2023-02-19T11:44:25.898Z,79.24
2023-02-19T11:48:53.871Z,78.59
2023-02-19T11:53:12.088Z,77.87
2023-02-19T11:57:27.486Z,78.34
2023-02-19T12:01:53.853Z,79.11
2023-02-19T12:06:13.647Z,78.44
2023-02-19T12:10:25.899Z,78.82
2023-02-19T12:14:52.733Z,78.94
2023-02-19T12:19:29.523Z,78.65
2023-02-19T12:23:50.334Z,77.99
2023-02-19T12:28:15.222Z,77.85
2023-02-19T12:32:39.045Z,78.36
2023-02-19T12:36:54.856Z,77.79
2023-02-19T12:41:15.255Z,76.06
2023-02-19T12:45:25.959Z,72.74
2023-02-19T12:49:37.054Z,71.07
2023-02-19T12:53:50.355Z,70.07
2023-02-19T12:57:58.374Z,70.59
2023-02-19T13:02:11.564Z,71.17
2023-02-19T13:06:25.894Z,71.08
2023-02-19T13:10:38.003Z,70.29
2023-02-19T13:14:48.881Z,69.83
2023-02-19T13:18:58.268Z,69.41
2023-02-19T13:23:29.445Z,69.04
2023-02-19T13:27:59.670Z,69.78
2023-02-19T13:32:26.730Z,70.72
2023-02-19T13:36:36.542Z,69.61
2023-02-19T13:40:56.335Z,69.42
2023-02-19T13:45:06.120Z,68.90
2023-02-19T13:49:43.536Z,69.10
2023-02-19T13:54:01.142Z,68.34
2023-02-19T13:58:39.832Z,66.16
2023-02-19T14:02:47.499Z,66.41
2023-02-19T14:07:36.756Z,66.37
2023-02-19T14:12:06.926Z,65.20
2023-02-19T14:16:33.797Z,64.88
2023-02-19T14:20:46.550Z,65.96
2023-02-19T14:24:57.087Z,65.79
2023-02-19T14:29:09.061Z,65.77
2023-02-19T14:33:19.438Z,64.95
2023-02-19T14:37:28.897Z,65.84
2023-02-19T14:41:40.875Z,65.69
2023-02-19T14:45:52.034Z,65.67
2023-02-19T14:50:04.122Z,66.28
2023-02-19T14:54:16.489Z,66.13
2023-02-19T14:58:29.808Z,65.72
2023-02-19T15:02:45.432Z,65.66
2023-02-19T15:06:56.936Z,65.02
2023-02-19T15:11:06.196Z,65.23
2023-02-19T15:15:20.390Z,64.77
2023-02-19T15:19:29.458Z,64.65
2023-02-19T15:23:37.896Z,64.49
2023-02-19T15:27:45.191Z,64.43
2023-02-19T15:31:55.299Z,64.36
2023-02-19T15:36:06.448Z,64.83
2023-02-19T15:40:19.087Z,65.16
2023-02-19T15:44:36.926Z,65.30
2023-02-19T15:48:48.263Z,66.04
2023-02-19T15:53:00.515Z,66.41
2023-02-19T15:57:13.781Z,66.83
2023-02-19T16:01:26.597Z,66.95
2023-02-19T16:05:40.081Z,66.59
2023-02-19T16:09:48.794Z,66.66
2023-02-19T16:14:16.897Z,67.47
2023-02-19T16:18:25.094Z,67.69
2023-02-19T16:22:37.155Z,67.99
2023-02-19T16:26:46.193Z,68.66
2023-02-19T16:31:01.173Z,68.97
2023-02-19T16:35:22.495Z,69.46
2023-02-19T16:39:32.761Z,69.79
2023-02-19T16:43:45.283Z,69.96
2023-02-19T16:47:53.497Z,70.22
2023-02-19T16:52:04.210Z,70.20
2023-02-19T16:56:18.628Z,70.23
2023-02-19T17:00:28.024Z,70.15
2023-02-19T17:04:36.204Z,70.05
2023-02-19T17:08:44.387Z,69.76
2023-02-19T17:12:52.421Z,70.06
2023-02-19T17:17:02.439Z,70.50
2023-02-19T17:21:17.752Z,70.62
2023-02-19T17:25:25.742Z,70.89
2023-02-19T17:29:34.297Z,71.12
2023-02-19T17:33:42.772Z,70.90
2023-02-19T17:37:52.378Z,70.94
2023-02-19T17:42:00.701Z,71.20
2023-02-19T17:46:08.804Z,71.22
2023-02-19T17:50:19.055Z,71.47
2023-02-19T17:54:26.708Z,71.52
2023-02-19T17:58:36.281Z,71.84
2023-02-19T18:02:44.513Z,71.83
2023-02-19T18:06:54.077Z,72.06
2023-02-19T18:11:04.921Z,72.52
2023-02-19T18:15:18.448Z,72.59
2023-02-19T18:19:27.394Z,72.77
2023-02-19T18:23:35.286Z,72.91
2023-02-19T18:27:45.601Z,73.11
2023-02-19T18:31:53.840Z,72.90
2023-02-19T18:36:01.553Z,72.88
2023-02-19T18:40:11.778Z,73.00
2023-02-19T18:44:22.115Z,73.37
2023-02-19T18:48:30.558Z,73.40
2023-02-19T18:52:38.034Z,73.21
2023-02-19T18:56:47.333Z,73.37
2023-02-19T19:00:55.296Z,73.44
2023-02-19T19:05:03.335Z,73.65
2023-02-19T19:09:11.524Z,73.56
2023-02-19T19:13:19.099Z,73.75
2023-02-19T19:17:26.997Z,73.79
2023-02-19T19:21:34.792Z,74.06
2023-02-19T19:25:43.215Z,73.99
2023-02-19T19:29:51.630Z,73.84
2023-02-19T19:33:59.301Z,74.15
2023-02-19T19:38:08.397Z,74.24
2023-02-19T19:42:18.728Z,74.15
2023-02-19T19:46:26.716Z,74.29
2023-02-19T19:50:35.058Z,74.01
2023-02-19T19:54:44.120Z,74.17
2023-02-19T19:58:52.427Z,74.35
2023-02-19T20:03:01.389Z,74.44
2023-02-19T20:07:10.231Z,74.49
2023-02-19T20:11:20.707Z,74.37
2023-02-19T20:15:28.548Z,74.56
2023-02-19T20:19:36.886Z,74.88
2023-02-19T20:23:44.932Z,74.85
2023-02-19T20:27:54.780Z,74.88
2023-02-19T20:32:05.177Z,74.90
2023-02-19T20:36:13.860Z,74.71
2023-02-19T20:40:24.534Z,74.81
2023-02-19T20:44:32.261Z,74.64
2023-02-19T20:48:39.901Z,74.82
2023-02-19T20:52:47.792Z,74.80
2023-02-19T20:56:57.105Z,74.97
2023-02-19T21:01:05.476Z,74.74
2023-02-19T21:05:13.788Z,74.92
2023-02-19T21:09:21.876Z,74.97
2023-02-19T21:13:30.338Z,75.03
2023-02-19T21:17:38.212Z,74.93
2023-02-19T21:21:46.345Z,75.24
2023-02-19T21:25:54.997Z,75.30
2023-02-19T21:30:03.171Z,75.36
2023-02-19T21:34:12.610Z,75.29
2023-02-19T21:38:21.179Z,75.19
2023-02-19T21:42:29.193Z,75.21
2023-02-19T21:46:37.374Z,75.18
2023-02-19T21:50:46.104Z,75.40
2023-02-19T21:54:54.073Z,75.45
2023-02-19T21:59:01.991Z,75.21
2023-02-19T22:03:10.557Z,75.16
2023-02-19T22:07:18.734Z,75.17
2023-02-19T22:11:26.227Z,75.06
2023-02-19T22:15:34.182Z,74.97
2023-02-19T22:19:42.016Z,75.17
2023-02-19T22:23:51.156Z,75.04
2023-02-19T22:28:00.169Z,75.34
2023-02-19T22:32:08.537Z,75.18
2023-02-19T22:36:21.888Z,75.22
2023-02-19T22:40:30.177Z,75.24
2023-02-19T22:44:38.441Z,75.23
2023-02-19T22:48:46.244Z,75.36
2023-02-19T22:52:55.306Z,75.24
2023-02-19T22:57:03.926Z,75.33
2023-02-19T23:01:12.322Z,75.08
2023-02-19T23:05:20.642Z,75.24
2023-02-19T23:09:30.443Z,75.37
2023-02-19T23:13:39.022Z,75.30
2023-02-19T23:17:46.735Z,75.18
2023-02-19T23:21:54.505Z,74.99
2023-02-19T23:26:02.005Z,75.00
2023-02-19T23:30:11.725Z,75.10
2023-02-19T23:34:19.781Z,74.96
2023-02-19T23:38:28.566Z,75.08
2023-02-19T23:42:38.315Z,75.04
2023-02-19T23:46:46.129Z,75.09
2023-02-19T23:50:53.838Z,75.00
2023-02-19T23:55:02.020Z,75.25
2023-02-19T23:59:10.011Z,75.20
